createdAt,value
2024-04-25T00:00:20.057Z,100
2024-04-25T00:01:21.804Z,100
2024-04-25T00:02:23.952Z,100
2024-04-25T00:03:25.466Z,100
2024-04-25T00:04:27.041Z,100
2024-04-25T00:05:28.779Z,100
2024-04-25T00:06:30.489Z,100
2024-04-25T00:07:32.197Z,100
2024-04-25T00:08:34.021Z,100
2024-04-25T00:09:35.867Z,100
2024-04-25T00:10:37.448Z,100
2024-04-25T00:11:39.281Z,100
2024-04-25T00:12:40.858Z,100
2024-04-25T00:13:42.580Z,100
2024-04-25T00:14:44.408Z,100
2024-04-25T00:15:46.055Z,100
2024-04-25T00:16:47.850Z,100
2024-04-25T00:17:49.714Z,100
2024-04-25T00:18:51.352Z,100
2024-04-25T00:19:52.985Z,100
2024-04-25T00:20:54.704Z,100
2024-04-25T00:21:56.436Z,100
2024-04-25T00:22:58.232Z,100
2024-04-25T00:23:59.912Z,100
2024-04-25T00:25:01.731Z,100
2024-04-25T00:26:03.486Z,100
2024-04-25T00:27:05.114Z,100
2024-04-25T00:28:06.852Z,100
2024-04-25T00:29:08.595Z,100
2024-04-25T00:30:10.331Z,100
2024-04-25T00:31:12.051Z,100
2024-04-25T00:32:13.801Z,100
2024-04-25T00:33:15.661Z,100
2024-04-25T00:34:17.295Z,100
2024-04-25T00:35:19.147Z,100
2024-04-25T00:36:20.709Z,100
2024-04-25T00:37:22.566Z,100
2024-04-25T00:38:24.290Z,100
2024-04-25T00:39:25.978Z,100
2024-04-25T00:40:27.642Z,100
2024-04-25T00:41:29.528Z,100
2024-04-25T00:42:31.127Z,100
2024-04-25T00:43:32.841Z,100
2024-04-25T00:44:34.722Z,100
2024-04-25T00:45:36.357Z,100
2024-04-25T00:46:38.027Z,100
2024-04-25T00:47:39.953Z,100
2024-04-25T00:48:41.538Z,100
2024-04-25T00:49:43.473Z,100
2024-04-25T00:50:45.246Z,100
2024-04-25T00:51:46.760Z,100
2024-04-25T00:52:48.428Z,100
2024-04-25T00:53:50.171Z,100
2024-04-25T00:54:51.902Z,100
2024-04-25T00:55:53.624Z,100
2024-04-25T00:56:55.359Z,100
2024-04-25T00:57:57.286Z,100
2024-04-25T00:58:58.894Z,100
2024-04-25T01:00:00.573Z,100
2024-04-25T01:01:02.588Z,100
2024-04-25T01:02:04.127Z,100
2024-04-25T01:03:05.898Z,100
2024-04-25T01:04:07.617Z,100
2024-04-25T01:05:09.270Z,100
2024-04-25T01:06:10.946Z,100
2024-04-25T01:07:12.686Z,100
2024-04-25T01:08:14.475Z,100
2024-04-25T01:09:16.169Z,100
2024-04-25T01:10:17.870Z,100
2024-04-25T01:11:19.820Z,100
2024-04-25T01:12:21.351Z,100
2024-04-25T01:13:23.218Z,100
2024-04-25T01:14:24.853Z,100
2024-04-25T01:15:26.559Z,100
2024-04-25T01:16:28.333Z,100
2024-04-25T01:17:30.103Z,100
2024-04-25T01:18:31.758Z,100
2024-04-25T01:19:33.735Z,100
2024-04-25T01:20:35.370Z,100
2024-04-25T01:21:37.142Z,100
2024-04-25T01:22:38.666Z,100
2024-04-25T01:23:40.670Z,100
2024-04-25T01:24:42.145Z,100
2024-04-25T01:25:44.044Z,100
2024-04-25T01:26:45.629Z,100
2024-04-25T01:27:47.350Z,100
2024-04-25T01:28:49.077Z,100
2024-04-25T01:29:50.804Z,100
2024-04-25T01:30:52.552Z,100
2024-04-25T01:31:54.275Z,100
2024-04-25T01:32:56.298Z,100
2024-04-25T01:33:57.841Z,100
2024-04-25T01:34:59.490Z,100
2024-04-25T01:36:01.201Z,100
2024-04-25T01:37:03.152Z,100
2024-04-25T01:38:04.804Z,100
2024-04-25T01:39:06.417Z,100
2024-04-25T01:40:08.178Z,100
2024-04-25T01:41:09.939Z,100
2024-04-25T01:42:11.625Z,100
2024-04-25T01:43:13.343Z,100
2024-04-25T01:44:15.130Z,100
2024-04-25T01:45:16.912Z,100
2024-04-25T01:46:18.563Z,100
2024-04-25T01:47:20.406Z,100
2024-04-25T01:48:22.300Z,100
2024-04-25T01:49:23.819Z,100
2024-04-25T01:50:25.526Z,100
2024-04-25T01:51:27.212Z,100
2024-04-25T01:52:28.953Z,100
2024-04-25T01:53:30.755Z,100
2024-04-25T01:54:32.420Z,100
2024-04-25T01:55:34.151Z,100
2024-04-25T01:56:37.307Z,100
2024-04-25T01:57:37.599Z,100
2024-04-25T01:58:39.350Z,100
2024-04-25T01:59:41.131Z,100
2024-04-25T02:00:42.814Z,100
2024-04-25T02:01:44.531Z,100
2024-04-25T02:02:46.820Z,100
2024-04-25T02:03:48.131Z,100
2024-04-25T02:04:49.740Z,100
2024-04-25T02:05:51.490Z,100
2024-04-25T02:06:53.203Z,100
2024-04-25T02:07:54.930Z,100
2024-04-25T02:08:56.680Z,100
2024-04-25T02:09:58.597Z,100
2024-04-25T02:11:00.114Z,100
2024-04-25T02:12:02.173Z,100
2024-04-25T02:13:03.714Z,100
2024-04-25T02:14:05.593Z,100
2024-04-25T02:15:07.056Z,100
2024-04-25T02:16:08.817Z,100
2024-04-25T02:17:10.567Z,100
2024-04-25T02:18:12.479Z,100
2024-04-25T02:19:14.002Z,100
2024-04-25T02:20:15.749Z,100
2024-04-25T02:21:17.465Z,100
2024-04-25T02:22:19.185Z,100
2024-04-25T02:23:20.981Z,100
2024-04-25T02:24:22.665Z,100
2024-04-25T02:25:24.455Z,100
2024-04-25T02:26:27.600Z,100
2024-04-25T02:27:27.957Z,100
2024-04-25T02:28:42.641Z,100
2024-04-25T02:29:45.596Z,100
2024-04-25T02:31:10.157Z,100
2024-04-25T02:32:10.937Z,100
2024-04-25T02:33:11.550Z,100
2024-04-25T02:34:17.332Z,100
2024-04-25T02:35:20.210Z,100
2024-04-25T02:36:22.948Z,100
2024-04-25T02:37:24.928Z,100
2024-04-25T02:38:25.284Z,100
2024-04-25T02:39:27.348Z,100
2024-04-25T02:40:28.702Z,100
2024-04-25T02:41:31.850Z,100
2024-04-25T02:42:32.143Z,100
2024-04-25T02:43:33.815Z,100
2024-04-25T02:44:40.844Z,100
2024-04-25T02:45:41.157Z,100
2024-04-25T02:46:44.105Z,100
2024-04-25T02:47:47.488Z,100
2024-04-25T02:48:47.730Z,100
2024-04-25T02:49:49.416Z,100
2024-04-25T02:50:51.152Z,100
2024-04-25T02:51:52.891Z,100
2024-04-25T02:52:54.590Z,100
2024-04-25T02:53:57.345Z,100
2024-04-25T02:54:58.051Z,100
2024-04-25T02:55:59.775Z,100
2024-04-25T02:57:01.534Z,100
2024-04-25T02:58:03.233Z,100
2024-04-25T02:59:04.994Z,100
2024-04-25T03:00:06.683Z,100
2024-04-25T03:01:08.466Z,100
2024-04-25T03:02:10.242Z,100
2024-04-25T03:03:12.019Z,100
2024-04-25T03:04:13.628Z,100
2024-04-25T03:05:13.992Z,100
2024-04-25T03:06:23.076Z,100
2024-04-25T03:07:23.938Z,100
2024-04-25T03:08:25.691Z,100
2024-04-25T03:09:28.434Z,100
2024-04-25T03:10:30.239Z,100
2024-04-25T03:11:41.070Z,100
2024-04-25T03:12:44.278Z,100
2024-04-25T03:13:55.286Z,100
2024-04-25T03:14:56.593Z,100
2024-04-25T03:15:59.425Z,100
2024-04-25T03:17:01.184Z,100
2024-04-25T03:18:01.918Z,100
2024-04-25T03:19:05.011Z,100
2024-04-25T03:20:05.281Z,100
2024-04-25T03:21:27.555Z,100
2024-04-25T03:22:40.018Z,100
2024-04-25T03:23:53.319Z,100
2024-04-25T03:24:57.780Z,100
2024-04-25T03:26:03.318Z,100
2024-04-25T03:27:04.159Z,100
2024-04-25T03:28:08.490Z,100
2024-04-25T03:29:18.843Z,100
2024-04-25T03:30:19.355Z,100
2024-04-25T03:31:21.746Z,100
2024-04-25T03:32:23.510Z,100
2024-04-25T03:33:23.734Z,100
2024-04-25T03:34:26.893Z,100
2024-04-25T03:35:27.094Z,100
2024-04-25T03:36:28.850Z,100
2024-04-25T03:37:39.614Z,100
2024-04-25T03:38:41.397Z,100
2024-04-25T03:39:43.073Z,100
2024-04-25T03:40:44.840Z,100
2024-04-25T03:41:46.589Z,100
2024-04-25T03:42:48.293Z,100
2024-04-25T03:43:50.034Z,100
2024-04-25T03:44:51.764Z,100
2024-04-25T03:45:53.485Z,100
2024-04-25T03:46:55.226Z,100
2024-04-25T03:47:57.183Z,100
2024-04-25T03:48:58.814Z,100
2024-04-25T03:50:00.421Z,100
2024-04-25T03:51:02.138Z,100
2024-04-25T03:52:03.906Z,100
2024-04-25T03:53:05.663Z,100
2024-04-25T03:54:07.353Z,100
2024-04-25T03:55:09.082Z,100
2024-04-25T03:56:10.879Z,100
2024-04-25T03:57:12.562Z,100
2024-04-25T03:58:14.295Z,100
2024-04-25T03:59:16.020Z,100
2024-04-25T04:00:17.747Z,100
2024-04-25T04:01:19.622Z,100
2024-04-25T04:02:21.304Z,100
2024-04-25T04:03:22.452Z,100
2024-04-25T04:04:24.689Z,100
2024-04-25T04:05:26.578Z,100
2024-04-25T04:06:29.407Z,100
2024-04-25T04:07:34.296Z,100
2024-04-25T04:08:38.395Z,100
2024-04-25T04:09:39.572Z,100
2024-04-25T04:10:40.186Z,100
2024-04-25T04:11:41.201Z,100
2024-04-25T04:12:47.868Z,100
2024-04-25T04:13:50.653Z,100
2024-04-25T04:14:54.183Z,100
2024-04-25T04:15:56.307Z,100
2024-04-25T04:17:01.114Z,100
2024-04-25T04:18:03.683Z,100
2024-04-25T04:19:04.400Z,100
2024-04-25T04:20:08.513Z,100
2024-04-25T04:21:11.856Z,100
2024-04-25T04:22:16.443Z,100
2024-04-25T04:23:18.321Z,100
2024-04-25T04:24:19.989Z,100
2024-04-25T04:25:34.128Z,100
2024-04-25T04:26:58.890Z,100
2024-04-25T04:28:55.903Z,100
2024-04-25T04:30:05.717Z,100
2024-04-25T04:31:05.978Z,100
2024-04-25T04:32:09.181Z,100
2024-04-25T04:33:09.560Z,100
2024-04-25T04:34:11.191Z,100
2024-04-25T04:35:13.381Z,100
2024-04-25T04:36:14.651Z,100
2024-04-25T04:37:17.692Z,100
2024-04-25T04:38:36.936Z,100
2024-04-25T04:39:38.321Z,100
2024-04-25T04:40:40.063Z,100
2024-04-25T04:41:41.868Z,100
2024-04-25T04:42:43.561Z,100
2024-04-25T04:43:44.351Z,100
2024-04-25T04:44:58.832Z,100
2024-04-25T04:45:59.285Z,100
2024-04-25T04:47:01.046Z,100
2024-04-25T04:48:03.453Z,100
2024-04-25T04:49:04.251Z,100
2024-04-25T04:50:07.471Z,100
2024-04-25T04:51:08.933Z,100
2024-04-25T04:52:09.369Z,100
2024-04-25T04:53:16.222Z,100
2024-04-25T04:54:19.040Z,100
2024-04-25T04:55:20.832Z,100
2024-04-25T04:56:23.027Z,100
2024-04-25T04:57:23.166Z,100
2024-04-25T04:58:29.399Z,100
2024-04-25T04:59:31.586Z,100
2024-04-25T05:00:31.697Z,100
2024-04-25T05:01:38.317Z,100
2024-04-25T05:02:38.525Z,100
2024-04-25T05:03:38.891Z,100
2024-04-25T05:04:41.799Z,100
2024-04-25T05:05:51.958Z,100
2024-04-25T05:06:59.720Z,100
2024-04-25T05:08:13.235Z,100
2024-04-25T05:09:18.291Z,100
2024-04-25T05:10:20.063Z,100
2024-04-25T05:11:26.023Z,100
2024-04-25T05:12:30.097Z,100
2024-04-25T05:13:30.345Z,100
2024-04-25T05:14:32.141Z,100
2024-04-25T05:15:33.781Z,100
2024-04-25T05:16:39.697Z,100
2024-04-25T05:17:46.335Z,100
2024-04-25T05:19:46.048Z,100
2024-04-25T05:21:08.112Z,100
2024-04-25T05:22:49.569Z,100
2024-04-25T05:23:53.839Z,100
2024-04-25T05:24:59.241Z,100
2024-04-25T05:26:28.423Z,100
2024-04-25T05:27:30.117Z,100
2024-04-25T05:28:31.820Z,100
2024-04-25T05:29:37.973Z,100
2024-04-25T05:30:41.679Z,100
2024-04-25T05:31:55.465Z,100
2024-04-25T05:33:06.452Z,100
2024-04-25T05:34:07.051Z,100
2024-04-25T05:35:08.796Z,100
2024-04-25T05:36:10.550Z,100
2024-04-25T05:37:16.773Z,100
2024-04-25T05:38:20.375Z,100
2024-04-25T05:39:21.289Z,100
2024-04-25T05:40:26.049Z,100
2024-04-25T05:41:29.901Z,100
2024-04-25T05:42:30.254Z,100
2024-04-25T05:43:49.582Z,100
2024-04-25T05:44:50.385Z,100
2024-04-25T05:46:01.571Z,100
2024-04-25T05:47:02.793Z,100
2024-04-25T05:48:09.186Z,100
2024-04-25T05:49:21.060Z,100
2024-04-25T05:50:52.010Z,100
2024-04-25T05:51:57.879Z,100
2024-04-25T05:53:01.146Z,100
2024-04-25T05:54:18.904Z,100
2024-04-25T05:55:19.693Z,100
2024-04-25T05:56:23.717Z,100
2024-04-25T05:57:24.102Z,100
2024-04-25T05:58:26.896Z,100
2024-04-25T05:59:27.551Z,100
2024-04-25T06:00:29.817Z,100
2024-04-25T06:01:31.001Z,100
2024-04-25T06:02:32.020Z,100
2024-04-25T06:03:38.261Z,100
2024-04-25T06:04:44.139Z,100
2024-04-25T06:05:48.198Z,100
2024-04-25T06:06:55.137Z,100
2024-04-25T06:08:04.383Z,100
2024-04-25T06:09:19.619Z,100
2024-04-25T06:10:20.975Z,100
2024-04-25T06:11:29.251Z,100
2024-04-25T06:13:23.476Z,100
2024-04-25T06:14:31.346Z,100
2024-04-25T06:15:33.196Z,100
2024-04-25T06:16:39.885Z,100
2024-04-25T06:17:40.801Z,100
2024-04-25T06:18:52.856Z,100
2024-04-25T06:19:55.535Z,100
2024-04-25T06:20:57.354Z,100
2024-04-25T06:22:09.783Z,100
2024-04-25T06:23:09.883Z,100
2024-04-25T06:24:11.579Z,100
2024-04-25T06:25:13.351Z,100
2024-04-25T06:26:25.232Z,100
2024-04-25T06:27:34.603Z,100
2024-04-25T06:28:36.383Z,100
2024-04-25T06:29:38.255Z,100
2024-04-25T06:30:46.814Z,100
2024-04-25T06:31:46.859Z,100
2024-04-25T06:32:48.738Z,100
2024-04-25T06:33:49.692Z,100
2024-04-25T06:34:57.895Z,100
2024-04-25T06:36:02.165Z,100
2024-04-25T06:37:05.770Z,100
2024-04-25T06:38:08.769Z,100
2024-04-25T06:39:10.796Z,100
2024-04-25T06:40:10.955Z,100
2024-04-25T06:41:13.235Z,100
2024-04-25T06:42:14.504Z,100
2024-04-25T06:43:16.146Z,100
2024-04-25T06:45:22.615Z,100
2024-04-25T06:46:37.176Z,100
2024-04-25T06:47:48.557Z,100
2024-04-25T06:48:54.657Z,100
2024-04-25T06:49:53.822Z,100
2024-04-25T06:50:54.016Z,100
2024-04-25T06:52:17.074Z,100
2024-04-25T06:53:23.379Z,100
2024-04-25T06:54:25.713Z,100
2024-04-25T06:55:25.464Z,100
2024-04-25T06:56:37.467Z,100
2024-04-25T06:57:43.943Z,100
2024-04-25T06:58:46.027Z,100
2024-04-25T06:59:48.552Z,100
2024-04-25T07:00:59.432Z,100
2024-04-25T07:02:51.430Z,100
2024-04-25T07:03:54.647Z,100
2024-04-25T07:05:46.779Z,100
2024-04-25T07:06:52.581Z,100
2024-04-25T07:07:53.884Z,100
2024-04-25T07:08:55.099Z,100
2024-04-25T07:09:56.865Z,100
2024-04-25T07:10:59.226Z,100
2024-04-25T07:12:01.457Z,100
2024-04-25T07:13:03.192Z,100
2024-04-25T07:14:03.760Z,100
2024-04-25T07:15:06.610Z,100
2024-04-25T07:16:08.310Z,100
2024-04-25T07:17:10.479Z,100
2024-04-25T07:18:11.355Z,100
2024-04-25T07:19:22.262Z,100
2024-04-25T07:20:24.444Z,100
2024-04-25T07:21:31.790Z,100
2024-04-25T07:22:37.402Z,100
2024-04-25T07:23:41.052Z,100
2024-04-25T07:24:44.325Z,100
2024-04-25T07:25:52.840Z,100
2024-04-25T07:27:11.113Z,100
2024-04-25T07:28:12.731Z,100
2024-04-25T07:29:13.130Z,100
2024-04-25T07:30:16.212Z,100
2024-04-25T07:31:17.890Z,100
2024-04-25T07:32:20.870Z,100
2024-04-25T07:33:47.373Z,100
2024-04-25T07:34:48.994Z,100
2024-04-25T07:35:52.150Z,100
2024-04-25T07:37:02.761Z,100
2024-04-25T07:38:04.508Z,100
2024-04-25T07:39:07.657Z,100
2024-04-25T07:40:07.869Z,100
2024-04-25T07:41:09.657Z,100
2024-04-25T07:42:11.281Z,100
2024-04-25T07:43:13.043Z,100
2024-04-25T07:44:16.161Z,100
2024-04-25T07:45:18.995Z,100
2024-04-25T07:46:39.401Z,100
2024-04-25T07:47:42.319Z,100
2024-04-25T07:48:56.878Z,100
2024-04-25T07:49:57.791Z,100
2024-04-25T07:51:03.993Z,100
2024-04-25T07:52:06.389Z,100
2024-04-25T07:53:10.412Z,100
2024-04-25T07:54:11.119Z,100
2024-04-25T07:55:11.620Z,100
2024-04-25T07:56:14.800Z,100
2024-04-25T07:57:17.489Z,100
2024-04-25T07:58:22.899Z,100
2024-04-25T07:59:23.674Z,100
2024-04-25T08:00:30.674Z,100
2024-04-25T08:01:32.405Z,100
2024-04-25T08:02:44.784Z,100
2024-04-25T08:03:46.156Z,100
2024-04-25T08:04:47.909Z,100
2024-04-25T08:05:50.741Z,100
2024-04-25T08:07:01.604Z,100
2024-04-25T08:08:06.302Z,100
2024-04-25T08:09:10.255Z,100
2024-04-25T08:10:13.149Z,100
2024-04-25T08:11:13.928Z,100
2024-04-25T08:12:15.426Z,100
2024-04-25T08:13:18.663Z,100
2024-04-25T08:14:20.464Z,100
2024-04-25T08:15:26.769Z,100
2024-04-25T08:16:29.091Z,100
2024-04-25T08:17:43.157Z,100
2024-04-25T08:18:45.422Z,100
2024-04-25T08:19:46.571Z,100
2024-04-25T08:20:51.323Z,100
2024-04-25T08:21:54.303Z,100
2024-04-25T08:22:56.896Z,100
2024-04-25T08:23:58.912Z,100
2024-04-25T08:25:04.924Z,100
2024-04-25T08:26:07.334Z,100
2024-04-25T08:27:09.081Z,100
2024-04-25T08:28:10.774Z,100
2024-04-25T08:29:12.732Z,100
2024-04-25T08:30:14.221Z,100
2024-04-25T08:31:20.044Z,100
2024-04-25T08:32:25.869Z,100
2024-04-25T08:33:24.721Z,100
2024-04-25T08:34:30.422Z,100
2024-04-25T08:35:33.160Z,100
2024-04-25T08:36:34.863Z,100
2024-04-25T08:37:40.697Z,100
2024-04-25T08:38:43.902Z,100
2024-04-25T08:39:46.510Z,100
2024-04-25T08:40:57.350Z,100
2024-04-25T08:41:58.178Z,100
2024-04-25T08:43:00.846Z,100
2024-04-25T08:44:02.575Z,100
2024-04-25T08:45:04.272Z,100
2024-04-25T08:46:10.464Z,100
2024-04-25T08:47:12.940Z,100
2024-04-25T08:48:14.831Z,100
2024-04-25T08:49:16.341Z,100
2024-04-25T08:50:23.372Z,100
2024-04-25T08:51:25.060Z,100
2024-04-25T08:52:25.707Z,100
2024-04-25T08:53:28.493Z,100
2024-04-25T08:54:30.140Z,100
2024-04-25T08:55:33.309Z,100
2024-04-25T08:56:34.905Z,100
2024-04-25T08:57:35.303Z,100
2024-04-25T08:58:38.173Z,100
2024-04-25T08:59:54.420Z,100
2024-04-25T09:00:56.808Z,100
2024-04-25T09:01:57.679Z,100
2024-04-25T09:02:59.490Z,100
2024-04-25T09:04:01.149Z,100
2024-04-25T09:05:04.312Z,100
2024-04-25T09:06:05.841Z,100
2024-04-25T09:07:07.536Z,100
2024-04-25T09:08:08.124Z,100
2024-04-25T09:09:15.190Z,100
2024-04-25T09:10:17.916Z,100
2024-04-25T09:11:18.403Z,100
2024-04-25T09:12:20.129Z,100
2024-04-25T09:13:26.372Z,100
2024-04-25T09:14:28.685Z,100
2024-04-25T09:15:30.412Z,100
2024-04-25T09:16:31.228Z,100
2024-04-25T09:17:52.458Z,100
2024-04-25T09:19:00.124Z,100
2024-04-25T09:20:00.981Z,100
2024-04-25T09:21:02.822Z,100
2024-04-25T09:22:03.595Z,100
2024-04-25T09:23:06.908Z,100
2024-04-25T09:24:07.974Z,100
2024-04-25T09:25:20.200Z,100
2024-04-25T09:26:25.983Z,100
2024-04-25T09:27:29.932Z,100
2024-04-25T09:28:45.702Z,100
2024-04-25T09:29:47.432Z,100
2024-04-25T09:30:49.103Z,100
2024-04-25T09:31:52.054Z,100
2024-04-25T09:32:52.686Z,100
2024-04-25T09:33:54.443Z,100
2024-04-25T09:34:55.134Z,100
2024-04-25T09:35:57.814Z,100
2024-04-25T09:36:59.536Z,100
2024-04-25T09:38:05.394Z,100
2024-04-25T09:39:08.160Z,100
2024-04-25T09:40:09.922Z,100
2024-04-25T09:41:11.658Z,100
2024-04-25T09:42:25.071Z,100
2024-04-25T09:43:25.324Z,100
2024-04-25T09:44:27.104Z,100
2024-04-25T09:45:29.914Z,100
2024-04-25T09:46:31.823Z,100
2024-04-25T09:47:36.640Z,100
2024-04-25T09:48:39.194Z,100
2024-04-25T09:49:40.938Z,100
2024-04-25T09:50:48.804Z,100
2024-04-25T09:51:49.554Z,100
2024-04-25T09:52:51.250Z,100
2024-04-25T09:53:53.043Z,100
2024-04-25T09:54:58.778Z,100
2024-04-25T09:56:00.578Z,100
2024-04-25T09:57:03.307Z,100
2024-04-25T09:58:12.398Z,100
2024-04-25T09:59:16.286Z,100
2024-04-25T10:00:34.322Z,100
2024-04-25T10:01:36.000Z,100
2024-04-25T10:02:37.705Z,100
2024-04-25T10:03:39.525Z,100
2024-04-25T10:04:41.212Z,100
2024-04-25T10:05:44.263Z,100
2024-04-25T10:06:44.662Z,100
2024-04-25T10:07:46.401Z,100
2024-04-25T10:08:54.988Z,100
2024-04-25T10:09:54.991Z,100
2024-04-25T10:11:04.060Z,100
2024-04-25T10:12:05.028Z,100
2024-04-25T10:13:06.538Z,100
2024-04-25T10:14:11.346Z,100
2024-04-25T10:15:18.399Z,100
2024-04-25T10:16:20.861Z,100
2024-04-25T10:17:23.678Z,100
2024-04-25T10:18:25.573Z,100
2024-04-25T10:19:25.960Z,100
2024-04-25T10:20:27.765Z,100
2024-04-25T10:21:29.438Z,100
2024-04-25T10:22:33.081Z,100
2024-04-25T10:23:32.922Z,100
2024-04-25T10:24:34.598Z,100
2024-04-25T10:25:37.569Z,100
2024-04-25T10:26:38.155Z,100
2024-04-25T10:27:39.806Z,100
2024-04-25T10:28:41.688Z,100
2024-04-25T10:29:43.392Z,100
2024-04-25T10:30:45.004Z,100
2024-04-25T10:31:47.912Z,100
2024-04-25T10:32:48.849Z,100
2024-04-25T10:33:50.411Z,100
2024-04-25T10:34:53.842Z,100
2024-04-25T10:36:00.283Z,100
2024-04-25T10:37:00.653Z,100
2024-04-25T10:38:02.381Z,100
2024-04-25T10:39:08.473Z,100
2024-04-25T10:40:05.752Z,100
2024-04-25T10:41:07.478Z,100
2024-04-25T10:42:09.234Z,100
2024-04-25T10:43:10.975Z,100
2024-04-25T10:44:12.704Z,100
2024-04-25T10:45:14.433Z,100
2024-04-25T10:46:16.176Z,100
2024-04-25T10:47:19.475Z,100
2024-04-25T10:48:19.838Z,100
2024-04-25T10:49:21.720Z,100
2024-04-25T10:50:23.182Z,100
2024-04-25T10:51:25.747Z,100
2024-04-25T10:52:25.979Z,100
2024-04-25T10:53:29.307Z,100
2024-04-25T10:54:30.046Z,100
2024-04-25T10:55:32.802Z,100
2024-04-25T10:56:38.050Z,100
2024-04-25T10:57:40.351Z,100
2024-04-25T10:58:42.073Z,100
2024-04-25T10:59:49.844Z,100
2024-04-25T11:00:50.821Z,100
2024-04-25T11:02:02.968Z,100
2024-04-25T11:03:08.758Z,100
2024-04-25T11:04:11.346Z,100
2024-04-25T11:05:13.076Z,100
2024-04-25T11:06:14.762Z,100
2024-04-25T11:07:16.636Z,100
2024-04-25T11:08:19.522Z,100
2024-04-25T11:09:20.104Z,100
2024-04-25T11:10:21.814Z,100
2024-04-25T11:11:23.645Z,100
2024-04-25T11:12:26.460Z,100
2024-04-25T11:13:40.733Z,100
2024-04-25T11:14:41.200Z,100
2024-04-25T11:15:47.300Z,100
2024-04-25T11:16:48.977Z,100
2024-04-25T11:18:00.362Z,100
2024-04-25T11:19:07.783Z,100
2024-04-25T11:20:03.395Z,100
2024-04-25T11:21:05.106Z,100
2024-04-25T11:22:07.899Z,100
2024-04-25T11:23:08.520Z,100
2024-04-25T11:24:10.164Z,100
2024-04-25T11:25:11.793Z,100
2024-04-25T11:26:21.149Z,100
2024-04-25T11:27:22.021Z,100
2024-04-25T11:28:23.647Z,100
2024-04-25T11:29:28.398Z,100
2024-04-25T11:30:28.783Z,100
2024-04-25T11:31:31.834Z,100
2024-04-25T11:32:36.835Z,100
2024-04-25T11:33:39.304Z,100
2024-04-25T11:34:40.932Z,100
2024-04-25T11:35:43.931Z,100
2024-04-25T11:36:48.582Z,100
2024-04-25T11:37:55.581Z,100
2024-04-25T11:38:58.232Z,100
2024-04-25T11:39:58.840Z,100
2024-04-25T11:41:00.686Z,100
2024-04-25T11:42:02.479Z,100
2024-04-25T11:43:12.647Z,100
2024-04-25T11:44:21.247Z,100
2024-04-25T11:45:24.428Z,100
2024-04-25T11:46:30.035Z,100
2024-04-25T11:47:32.593Z,100
2024-04-25T11:48:34.276Z,100
2024-04-25T11:49:38.659Z,100
2024-04-25T11:50:45.618Z,100
2024-04-25T11:51:45.689Z,100
2024-04-25T11:52:47.680Z,100
2024-04-25T11:53:48.080Z,100
2024-04-25T11:54:49.736Z,100
2024-04-25T11:56:25.313Z,100
2024-04-25T11:57:38.941Z,100
2024-04-25T11:58:38.930Z,100
2024-04-25T11:59:40.706Z,100
2024-04-25T12:00:42.394Z,100
2024-04-25T12:01:44.246Z,100
2024-04-25T12:02:45.946Z,100
2024-04-25T12:03:48.774Z,100
2024-04-25T12:04:50.536Z,100
2024-04-25T12:05:52.294Z,100
2024-04-25T12:07:12.987Z,100
2024-04-25T12:08:17.982Z,100
2024-04-25T12:09:19.654Z,100
2024-04-25T12:10:22.515Z,100
2024-04-25T12:11:27.304Z,100
2024-04-25T12:12:29.163Z,100
2024-04-25T12:13:31.704Z,100
2024-04-25T12:14:40.592Z,100
2024-04-25T12:15:49.632Z,100
2024-04-25T12:16:53.440Z,100
2024-04-25T12:17:59.780Z,100
2024-04-25T12:18:59.868Z,100
2024-04-25T12:20:00.538Z,100
2024-04-25T12:21:09.599Z,100
2024-04-25T12:22:12.574Z,100
2024-04-25T12:23:13.308Z,100
2024-04-25T12:24:14.837Z,100
2024-04-25T12:25:18.480Z,100
2024-04-25T12:26:26.559Z,100
2024-04-25T12:27:30.317Z,100
2024-04-25T12:28:34.845Z,100
2024-04-25T12:29:34.728Z,100
2024-04-25T12:30:38.145Z,100
2024-04-25T12:31:43.538Z,100
2024-04-25T12:32:46.856Z,100
2024-04-25T12:33:48.492Z,100
2024-04-25T12:34:51.127Z,100
2024-04-25T12:35:53.098Z,100
2024-04-25T12:36:53.576Z,100
2024-04-25T12:37:54.747Z,100
2024-04-25T12:39:02.635Z,99.04
2024-04-25T12:40:03.894Z,100
2024-04-25T12:41:04.093Z,100
2024-04-25T12:42:07.629Z,98.77
2024-04-25T12:43:09.128Z,100
2024-04-25T12:44:10.847Z,98.38
2024-04-25T12:45:12.533Z,95.75
2024-04-25T12:46:14.261Z,96.03
2024-04-25T12:47:19.647Z,96.92
2024-04-25T12:48:33.569Z,94.97
2024-04-25T12:49:36.130Z,95.84
2024-04-25T12:50:36.649Z,95.65
2024-04-25T12:51:39.563Z,87.74
2024-04-25T12:52:40.387Z,85.43
2024-04-25T12:53:41.906Z,81.67
2024-04-25T12:54:46.073Z,85.67
2024-04-25T12:55:46.735Z,83.06
2024-04-25T12:56:47.030Z,87.87
2024-04-25T12:57:48.714Z,80
2024-04-25T12:58:51.392Z,78.45
2024-04-25T12:59:52.250Z,77.63
2024-04-25T13:00:53.963Z,77.53
2024-04-25T13:01:55.618Z,79.61
2024-04-25T13:03:01.829Z,79.51
2024-04-25T13:04:05.299Z,76.09
2024-04-25T13:05:05.985Z,81.43
2024-04-25T13:06:08.778Z,82.87
2024-04-25T13:07:09.552Z,80.71
2024-04-25T13:08:15.264Z,83.67
2024-04-25T13:09:18.041Z,86.62
2024-04-25T13:10:25.945Z,86.66
2024-04-25T13:11:26.250Z,86.91
2024-04-25T13:12:28.495Z,87.47
2024-04-25T13:13:31.732Z,90.16
2024-04-25T13:14:36.273Z,84.29
2024-04-25T13:15:38.908Z,86.17
2024-04-25T13:16:40.549Z,85.04
2024-04-25T13:17:47.626Z,82.84
2024-04-25T13:18:49.442Z,87.57
2024-04-25T13:19:52.211Z,87.35
2024-04-25T13:20:52.750Z,91.68
2024-04-25T13:22:04.314Z,93.61
2024-04-25T13:23:11.873Z,88.98
2024-04-25T13:24:13.304Z,87.2
2024-04-25T13:25:14.968Z,87.18
2024-04-25T13:26:41.301Z,88.03
2024-04-25T13:27:44.164Z,87.42
2024-04-25T13:28:46.766Z,85.82
2024-04-25T13:29:47.824Z,84.26
2024-04-25T13:30:50.674Z,85.57
2024-04-25T13:31:51.360Z,87.05
2024-04-25T13:32:53.174Z,85.8
2024-04-25T13:33:57.142Z,88.88
2024-04-25T13:35:01.461Z,88.98
2024-04-25T13:36:08.257Z,91.56
2024-04-25T13:37:11.123Z,86.17
2024-04-25T13:38:12.956Z,91.77
2024-04-25T13:39:18.274Z,87.34
2024-04-25T13:40:19.728Z,89.38
2024-04-25T13:41:22.619Z,89.77
2024-04-25T13:42:26.939Z,85.83
2024-04-25T13:43:28.648Z,86.63
2024-04-25T13:44:36.792Z,84.66
2024-04-25T13:45:41.619Z,87.26
2024-04-25T13:46:44.153Z,88.05
2024-04-25T13:47:46.420Z,85.15
2024-04-25T13:48:49.187Z,87.35
2024-04-25T13:49:59.750Z,88.33
2024-04-25T13:51:01.819Z,92.15
2024-04-25T13:52:03.066Z,87.24
2024-04-25T13:53:06.005Z,88.49
2024-04-25T13:54:06.517Z,90.45
2024-04-25T13:55:15.211Z,93.89
2024-04-25T13:56:25.747Z,89.31
2024-04-25T13:57:27.256Z,88.75
2024-04-25T13:58:29.301Z,86.31
2024-04-25T13:59:46.422Z,85.4
2024-04-25T14:00:57.803Z,84.99
2024-04-25T14:02:00.925Z,88.88
2024-04-25T14:03:02.365Z,87.85
2024-04-25T14:04:02.996Z,85.69
2024-04-25T14:05:15.416Z,84.46
2024-04-25T14:06:19.880Z,82.19
2024-04-25T14:07:21.564Z,82.01
2024-04-25T14:08:22.346Z,81.22
2024-04-25T14:09:26.165Z,82.28
2024-04-25T14:10:28.067Z,82.37
2024-04-25T14:11:29.840Z,81.96
2024-04-25T14:12:31.608Z,86.53
2024-04-25T14:13:31.902Z,86.85
2024-04-25T14:14:33.656Z,86.06
2024-04-25T14:15:35.391Z,82.6
2024-04-25T14:16:41.421Z,82.75
2024-04-25T14:17:44.022Z,83.25
2024-04-25T14:18:45.681Z,81.3
2024-04-25T14:19:47.638Z,80.66
2024-04-25T14:20:49.504Z,79.63
2024-04-25T14:21:50.886Z,79.59
2024-04-25T14:22:52.974Z,82.49
2024-04-25T14:23:55.696Z,83.55
2024-04-25T14:24:56.423Z,84.84
2024-04-25T14:25:58.805Z,82.6
2024-04-25T14:27:03.850Z,83.17
2024-04-25T14:28:06.392Z,86.76
2024-04-25T14:29:08.137Z,86.68
2024-04-25T14:30:09.869Z,85.49
2024-04-25T14:31:12.826Z,86.58
2024-04-25T14:32:16.055Z,83.33
2024-04-25T14:33:20.316Z,81.53